Flag for Spain

Past Weather in 42°27'58.0"N, 2°26'22.8"W, Spain — Yesterday and Last 2 Weeks

Currently: 93 °F. Passing clouds. (Weather station: Logrono / Agoncillo, Spain). See more current weather

Past Weather in 42°27'58.0"N, 2°26'22.8"W — Graph

°F

42°27'58.0"N, 2°26'22.8"W Temperature Yesterday

Maximum temperature yesterday: 88 °F (at 5:00 pm)
Minimum temperature yesterday: 52 °F (at 5:30 am)
Average temperature yesterday: 69 °F

High & Low Weather Summary for the Past Weeks

 TemperatureHumidityPressure
High100 °F (Jul 19, 4:30 pm)94% (Jul 17, 6:00 am)30.24 "Hg (Jul 17, 6:00 am)
Low52 °F (Jul 22, 5:30 am)17% (Jul 19, 6:30 pm)29.74 "Hg (Jul 20, 4:30 pm)
Average74 °F59%30.02 "Hg
* Reported Jul 8 1:00 pm — Jul 23 1:30 pm, 42°27'58.0"N, 2°26'22.8"W. Weather by CustomWeather, © 2024

Note: Actual official high and low records may vary slightly from our data, if they occured in-between our weather recording intervals... More about our weather records

42°27'58.0"N, 2°26'22.8"W Weather History for the Previous 24 Hours

Scroll right to see more
 ConditionsComfort  
Time TempWeatherWind HumidityBarometerVisibility
1:30 pm
Tue, Jul 23
91 °FPassing clouds.6 mph24%30.15 "HgN/A
1:00 pm90 °FPassing clouds.10 mph29%30.18 "HgN/A
12:30 pm86 °FSunny.10 mph35%30.18 "Hg10 mi
12:00 pm84 °FSunny.12 mph37%30.18 "Hg10 mi
11:30 am82 °FPassing clouds.13 mph42%30.18 "HgN/A
11:00 am79 °FPassing clouds.12 mph45%30.18 "HgN/A
10:30 am77 °FPassing clouds.13 mph51%30.18 "HgN/A
10:00 am75 °FPassing clouds.14 mph54%30.18 "HgN/A
9:00 am70 °FPassing clouds.10 mph64%30.21 "HgN/A
8:30 am66 °FPassing clouds.12 mph73%30.18 "HgN/A
8:00 am64 °FSunny.7 mph78%30.21 "Hg10 mi
7:30 am63 °FPassing clouds.6 mph83%30.18 "HgN/A
7:00 am63 °FPassing clouds.5 mph83%30.18 "HgN/A
6:30 am61 °FClear.8 mph88%30.18 "Hg10 mi
6:00 am63 °FPassing clouds.3 mph83%30.18 "HgN/A
5:30 am63 °FPassing clouds.6 mph83%30.18 "HgN/A
5:00 am61 °FClear.7 mph88%30.18 "Hg10 mi
4:30 am63 °FClear.7 mph83%30.18 "Hg10 mi
4:00 am64 °FClear.5 mph78%30.18 "Hg10 mi
3:30 am63 °FClear.2 mph83%30.18 "Hg10 mi
3:00 am64 °FClear.2 mph78%30.18 "Hg10 mi
2:30 am63 °FClear.1 mph83%30.21 "Hg10 mi
2:00 am64 °FClear.No wind83%30.21 "Hg10 mi
1:30 am64 °FClear.No wind78%30.21 "Hg10 mi
1:00 am66 °FClear.1 mph73%30.21 "Hg10 mi
12:30 am66 °FClear.1 mph73%30.21 "Hg10 mi
12:00 am70 °FClear.No wind64%30.21 "Hg10 mi
11:30 pm
Mon, Jul 22
70 °FClear.5 mph64%30.21 "Hg10 mi
11:00 pm73 °FPassing clouds.3 mph57%30.21 "HgN/A
10:30 pm73 °FClear.2 mph57%30.18 "Hg10 mi
10:00 pm77 °FClear.3 mph51%30.18 "Hg10 mi
9:00 pm81 °FPassing clouds.6 mph45%30.15 "HgN/A
8:30 pm82 °FSunny.6 mph42%30.15 "Hg10 mi
8:00 pm82 °FSunny.7 mph42%30.15 "Hg10 mi
7:00 pm86 °FSunny.6 mph38%30.12 "Hg10 mi
6:30 pm86 °FPassing clouds.7 mph38%30.12 "HgN/A
6:00 pm86 °FSunny.6 mph38%30.15 "Hg10 mi
5:30 pm88 °FPassing clouds.10 mph35%30.15 "HgN/A
5:00 pm88 °FPassing clouds.8 mph33%30.15 "HgN/A
4:30 pm86 °FPassing clouds.7 mph35%30.15 "HgN/A
4:00 pm86 °FPassing clouds.8 mph35%30.15 "HgN/A
3:00 pm84 °FPassing clouds.10 mph27%30.15 "HgN/A
2:30 pm84 °FPassing clouds.10 mph25%30.15 "HgN/A
2:00 pm81 °FPassing clouds.9 mph26%30.18 "HgN/A
Weather by CustomWeather, © 2024

See weather overview